createdAt,value
2023-01-23T05:42:06.246Z,0.11
2023-01-23T05:44:48.636Z,0.09
2023-01-23T05:47:25.412Z,0.09
2023-01-23T05:49:52.733Z,0.13
2023-01-23T05:52:21.921Z,0.16
2023-01-23T05:54:49.115Z,0.17
2023-01-23T05:57:35.531Z,0.14
2023-01-23T06:00:22.318Z,0.13
2023-01-23T06:03:11.306Z,0.11
2023-01-23T06:05:53.521Z,0.10
2023-01-23T06:08:20.856Z,0.09
2023-01-23T06:10:47.906Z,0.06
2023-01-23T06:13:14.951Z,-0.03
2023-01-23T06:15:45.499Z,-0.07
2023-01-23T06:18:12.792Z,-0.07
2023-01-23T06:20:39.873Z,-0.03
2023-01-23T06:23:08.529Z,-0.00
2023-01-23T06:25:37.051Z,-0.02
2023-01-23T06:28:05.731Z,-0.01
2023-01-23T06:30:34.442Z,-0.05
2023-01-23T06:33:42.562Z,-0.10
2023-01-23T06:36:13.784Z,-0.13
2023-01-23T06:38:40.678Z,-0.16
2023-01-23T06:41:10.588Z,-0.18
2023-01-23T06:43:43.749Z,-0.15
2023-01-23T06:46:15.398Z,-0.06
2023-01-23T06:48:42.533Z,-0.01
2023-01-23T06:51:09.763Z,0.01
2023-01-23T06:53:38.403Z,-0.02
2023-01-23T06:56:29.633Z,-0.02
2023-01-23T06:58:57.129Z,-0.03
2023-01-23T07:01:30.329Z,-0.04
2023-01-23T07:04:03.492Z,-0.05
2023-01-23T07:06:30.796Z,-0.02
2023-01-23T07:08:58.014Z,0.00
2023-01-23T07:14:31.227Z,0.10
2023-01-23T07:16:58.533Z,0.17
2023-01-23T07:19:25.816Z,0.16
2023-01-23T07:21:53.643Z,0.11
2023-01-23T07:24:22.813Z,0.07
2023-01-23T07:26:51.079Z,0.07
2023-01-23T07:29:18.344Z,0.09
2023-01-23T07:31:45.546Z,0.14
2023-01-23T07:34:12.822Z,0.17
2023-01-23T07:36:40.185Z,0.17
2023-01-23T07:39:07.683Z,0.14
2023-01-23T07:41:34.904Z,0.17
2023-01-23T07:44:08.020Z,0.21
2023-01-23T07:46:36.291Z,0.14
2023-01-23T07:49:03.740Z,0.10
2023-01-23T07:51:31.058Z,0.09
2023-01-23T07:53:58.248Z,0.11
2023-01-23T07:56:25.185Z,0.13
2023-01-23T07:58:57.409Z,0.15
2023-01-23T08:01:24.715Z,0.18
2023-01-23T08:03:53.972Z,0.25
2023-01-23T08:06:21.169Z,0.29
2023-01-23T08:08:49.039Z,0.28
2023-01-23T08:11:16.067Z,0.23
2023-01-23T08:13:43.129Z,0.21
2023-01-23T08:16:12.049Z,0.26
2023-01-23T08:18:43.888Z,0.35
2023-01-23T08:21:11.112Z,0.40
2023-01-23T08:23:39.181Z,0.45
2023-01-23T08:26:06.921Z,0.52
2023-01-23T08:28:36.756Z,0.58
2023-01-23T08:31:07.676Z,0.62
2023-01-23T08:33:35.584Z,0.59
2023-01-23T08:36:02.931Z,0.59
2023-01-23T08:38:30.579Z,0.64
2023-01-23T08:41:00.267Z,0.69
2023-01-23T08:43:33.562Z,0.74
2023-01-23T08:46:00.943Z,0.76
2023-01-23T08:48:28.886Z,0.74
2023-01-23T08:51:01.109Z,0.75
2023-01-23T08:53:30.569Z,0.77
2023-01-23T08:56:05.506Z,0.73
2023-01-23T09:01:26.306Z,0.61
2023-01-23T09:03:53.466Z,0.60
2023-01-23T09:06:21.252Z,0.62
2023-01-23T09:08:50.905Z,0.66
2023-01-23T09:11:21.548Z,0.70
2023-01-23T09:13:48.946Z,0.69
2023-01-23T09:16:16.510Z,0.70
2023-01-23T09:18:43.677Z,0.72
2023-01-23T09:21:13.370Z,0.75
2023-01-23T09:23:44.792Z,0.75
2023-01-23T09:26:14.713Z,0.71
2023-01-23T09:28:42.680Z,0.71
2023-01-23T09:31:11.648Z,0.71
2023-01-23T09:33:39.231Z,0.71
2023-01-23T09:36:41.364Z,0.76
2023-01-23T09:39:09.462Z,0.78
2023-01-23T09:41:36.641Z,0.85
2023-01-23T09:44:10.302Z,0.94
2023-01-23T09:47:02.801Z,1.02
2023-01-23T09:49:46.998Z,0.98
2023-01-23T09:52:19.814Z,0.95
2023-01-23T09:55:24.296Z,0.94
2023-01-23T09:57:56.072Z,0.89
2023-01-23T10:00:32.081Z,0.91
2023-01-23T10:03:04.508Z,0.94
2023-01-23T10:06:01.840Z,0.96
2023-01-23T10:08:39.986Z,1.01
2023-01-23T10:11:10.708Z,1.10
2023-01-23T10:13:45.708Z,1.16
2023-01-23T10:16:48.753Z,1.21
2023-01-23T10:19:38.558Z,1.22
2023-01-23T10:22:46.747Z,1.25
2023-01-23T10:25:25.320Z,1.26
2023-01-23T10:27:53.987Z,1.20
2023-01-23T10:30:32.215Z,1.13
2023-01-23T10:33:00.415Z,1.08
2023-01-23T10:35:38.927Z,1.08
2023-01-23T10:38:31.666Z,1.06
2023-01-23T10:41:13.979Z,1.03
2023-01-23T10:43:42.176Z,0.99
2023-01-23T10:46:35.935Z,0.97
2023-01-23T10:49:03.426Z,1.00
2023-01-23T10:51:32.811Z,1.02
2023-01-23T10:54:11.335Z,1.06
2023-01-23T10:56:51.814Z,1.09
2023-01-23T10:59:24.359Z,1.13
2023-01-23T11:02:00.165Z,1.16
2023-01-23T11:04:35.478Z,1.15
2023-01-23T11:07:19.062Z,1.11
2023-01-23T11:09:49.272Z,1.13
2023-01-23T11:12:27.725Z,1.17
2023-01-23T11:15:21.687Z,1.21
2023-01-23T11:17:50.955Z,1.23
2023-01-23T11:20:33.576Z,1.28
2023-01-23T11:23:17.198Z,1.30
2023-01-23T11:25:49.578Z,1.29
2023-01-23T11:28:23.804Z,1.28
2023-01-23T11:31:03.741Z,1.25
2023-01-23T11:33:57.252Z,1.21
2023-01-23T11:36:47.354Z,1.20
2023-01-23T11:39:17.616Z,1.20
2023-01-23T11:41:45.906Z,1.22
2023-01-23T11:44:18.696Z,1.25
2023-01-23T11:46:55.800Z,1.23
2023-01-23T11:49:44.514Z,1.18
2023-01-23T11:52:54.489Z,1.14
2023-01-23T11:56:04.311Z,1.11
2023-01-23T11:59:15.980Z,1.08
2023-01-23T12:02:12.393Z,1.03
2023-01-23T12:05:12.066Z,1.00
2023-01-23T12:07:53.227Z,1.02
2023-01-23T12:10:28.938Z,1.03
2023-01-23T12:13:08.535Z,1.03
2023-01-23T12:16:00.302Z,0.96
2023-01-23T12:19:05.114Z,0.94
2023-01-23T12:21:44.927Z,0.92
2023-01-23T12:24:15.177Z,0.88
2023-01-23T12:27:02.105Z,0.86
2023-01-23T12:29:38.017Z,0.88
2023-01-23T12:32:27.851Z,0.86
2023-01-23T12:35:04.879Z,0.91
2023-01-23T12:37:43.602Z,0.91
2023-01-23T12:40:13.378Z,0.90
2023-01-23T12:43:22.772Z,0.88
2023-01-23T12:45:57.752Z,0.82
2023-01-23T12:48:32.230Z,0.82
2023-01-23T12:51:04.938Z,0.86
2023-01-23T12:53:55.896Z,0.88
2023-01-23T12:56:29.032Z,0.88
2023-01-23T12:59:31.372Z,0.92
2023-01-23T13:02:07.663Z,0.92
2023-01-23T13:04:55.960Z,0.94
2023-01-23T13:07:42.590Z,0.95
2023-01-23T13:11:00.765Z,0.94
2023-01-23T13:13:27.921Z,0.89
2023-01-23T13:16:02.900Z,0.85
2023-01-23T13:18:30.312Z,0.85
2023-01-23T13:21:17.944Z,0.87
2023-01-23T13:23:47.981Z,0.89
2023-01-23T13:26:23.349Z,0.90
2023-01-23T13:29:11.230Z,0.90
2023-01-23T13:31:47.328Z,0.88
2023-01-23T13:34:17.988Z,0.92
2023-01-23T13:36:51.563Z,0.97
2023-01-23T13:39:19.924Z,0.96
2023-01-23T13:42:16.047Z,0.92
2023-01-23T13:45:21.381Z,0.92
2023-01-23T14:21:52.538Z,0.68
2023-01-23T14:24:22.298Z,0.69
2023-01-23T14:26:51.032Z,0.68
2023-01-23T14:29:23.352Z,0.65
2023-01-23T14:31:53.911Z,0.64
2023-01-23T14:34:22.602Z,0.66
2023-01-23T14:37:06.020Z,0.69
2023-01-23T14:39:34.384Z,0.71
2023-01-23T14:42:02.799Z,0.69
2023-01-23T14:44:42.826Z,0.72
2023-01-23T14:47:12.060Z,0.75
2023-01-23T14:49:39.816Z,0.77
2023-01-23T14:52:07.790Z,0.79
2023-01-23T14:54:36.869Z,0.80
2023-01-23T14:57:05.744Z,0.78
2023-01-23T14:59:35.218Z,0.70
2023-01-23T15:02:13.035Z,0.62
2023-01-23T15:04:43.541Z,0.60
2023-01-23T15:15:16.604Z,0.58
2023-01-23T15:17:44.651Z,0.54
2023-01-23T15:23:18.784Z,0.43
2023-01-23T15:25:51.720Z,0.33
2023-01-23T15:28:32.337Z,0.26
2023-01-23T15:30:59.225Z,0.24
2023-01-23T15:33:28.238Z,0.25
2023-01-23T15:36:05.191Z,0.24
2023-01-23T15:38:32.095Z,0.23
2023-01-23T15:40:59.755Z,0.21
2023-01-23T15:43:26.710Z,0.21
